Time;durP1;ratioP1;P1;durP2;ratioP2;P2;SDS_P1;SDS_P2;PMS_P1;PMS_P2;Temp;Humidity;BMP_temperature;BMP_pressure;BME280_temperature;BME280_humidity;BME280_pressure;Samples;Min_cycle;Max_cycle;Signal;HPM_P1;HPM_P2
2023/10/28 04:02:32;;;;;;;1.77;1.10;;;10.70;87.40;;;;;;5149904;23;20492;-78
2023/10/28 04:04:59;;;;;;;2.27;0.90;;;10.80;86.70;;;;;;4995593;28;20933;-77
2023/10/28 04:07:25;;;;;;;1.33;0.90;;;10.60;87.20;;;;;;4995714;28;20832;-78
2023/10/28 04:09:52;;;;;;;2.37;0.90;;;10.70;87.50;;;;;;4995897;28;20826;-77
2023/10/28 04:12:19;;;;;;;2.10;1.07;;;10.70;87.40;;;;;;4995883;28;20472;-77
2023/10/28 04:14:45;;;;;;;1.80;1.00;;;10.80;86.60;;;;;;4996495;28;20457;-78
2023/10/28 04:17:12;;;;;;;1.70;1.03;;;10.90;86.50;;;;;;4995740;28;20535;-78
2023/10/28 04:19:40;;;;;;;1.40;0.90;;;11.00;86.30;;;;;;4995701;28;20514;-77
2023/10/28 04:22:07;;;;;;;1.30;0.70;;;10.90;85.30;;;;;;4995899;28;20466;-78
2023/10/28 04:24:33;;;;;;;1.90;1.03;;;11.00;85.70;;;;;;4995684;28;20452;-78
2023/10/28 04:27:00;;;;;;;1.40;0.80;;;11.00;85.40;;;;;;4995673;28;20445;-78
2023/10/28 04:29:29;;;;;;;2.50;1.00;;;11.00;85.10;;;;;;4995679;28;20495;-78
2023/10/28 04:31:56;;;;;;;1.87;0.90;;;10.90;84.90;;;;;;4995480;28;20863;-78
2023/10/28 04:34:22;;;;;;;1.70;0.90;;;10.90;84.90;;;;;;4995478;28;20445;-78
2023/10/28 04:36:50;;;;;;;1.60;0.90;;;10.90;85.30;;;;;;4995493;28;20485;-78
2023/10/28 04:39:17;;;;;;;1.70;1.00;;;11.00;85.30;;;;;;4995525;28;20452;-78
2023/10/28 04:41:44;;;;;;;2.43;0.80;;;11.10;85.20;;;;;;4995271;28;20461;-78
2023/10/28 04:44:13;;;;;;;1.60;0.97;;;11.00;84.70;;;;;;4995220;28;20449;-77
2023/10/28 04:46:40;;;;;;;2.10;1.30;;;11.10;84.50;;;;;;4995189;28;20453;-78
2023/10/28 04:49:08;;;;;;;2.10;0.87;;;11.00;84.10;;;;;;4995331;28;20445;-78
2023/10/28 04:51:36;;;;;;;2.30;0.90;;;10.90;84.40;;;;;;4994633;28;20966;-78
2023/10/28 04:54:06;;;;;;;1.57;0.80;;;10.80;84.80;;;;;;4995114;28;20500;-78
2023/10/28 04:56:33;;;;;;;1.60;0.90;;;10.90;84.90;;;;;;4994601;28;21008;-78
2023/10/28 04:58:59;;;;;;;2.60;1.10;;;10.90;84.40;;;;;;4994957;28;20480;-78
2023/10/28 05:01:26;;;;;;;1.30;0.80;;;10.70;84.40;;;;;;4994645;28;20480;-78
2023/10/28 05:03:53;;;;;;;1.30;0.80;;;10.70;84.90;;;;;;4994835;28;20445;-78
2023/10/28 05:06:20;;;;;;;1.73;0.90;;;10.70;84.40;;;;;;4996263;28;20445;-77
2023/10/28 05:08:48;;;;;;;2.03;0.80;;;10.70;84.60;;;;;;4997322;28;20977;-78
2023/10/28 05:11:16;;;;;;;1.93;0.80;;;10.80;84.30;;;;;;4995799;28;21012;-78
2023/10/28 05:13:43;;;;;;;1.70;0.90;;;10.90;83.90;;;;;;4995167;28;20547;-78
2023/10/28 05:16:10;;;;;;;1.20;0.70;;;10.90;83.90;;;;;;4994288;28;20481;-78
2023/10/28 05:18:37;;;;;;;1.77;0.87;;;10.80;83.40;;;;;;4994584;28;20846;-78
2023/10/28 05:21:05;;;;;;;2.40;0.80;;;10.70;83.60;;;;;;4994504;28;20488;-78
2023/10/28 05:23:32;;;;;;;1.97;1.23;;;10.70;84.20;;;;;;4994965;28;20447;-78
2023/10/28 05:25:59;;;;;;;1.50;0.80;;;10.70;83.90;;;;;;4994405;28;20475;-78
2023/10/28 05:28:27;;;;;;;1.60;0.90;;;10.60;83.90;;;;;;4994398;28;20471;-78
2023/10/28 05:30:53;;;;;;;1.67;0.97;;;10.70;83.90;;;;;;4995085;28;20480;-78
2023/10/28 05:33:20;;;;;;;2.67;0.97;;;10.70;83.40;;;;;;4994659;28;20475;-78
2023/10/28 05:35:48;;;;;;;1.40;0.80;;;10.60;83.40;;;;;;4995056;28;20472;-78
2023/10/28 05:38:15;;;;;;;1.50;0.90;;;10.70;83.70;;;;;;4994355;28;20480;-78
2023/10/28 05:40:42;;;;;;;1.77;0.80;;;10.70;83.90;;;;;;4994387;28;20465;-78
2023/10/28 05:43:09;;;;;;;1.60;0.90;;;10.70;84.30;;;;;;4994333;28;20943;-78
2023/10/28 05:45:37;;;;;;;1.33;0.80;;;10.60;83.50;;;;;;4994224;28;20455;-78
2023/10/28 05:48:06;;;;;;;1.90;0.90;;;10.60;84.00;;;;;;4994208;28;21022;-78
2023/10/28 05:50:33;;;;;;;1.40;0.90;;;10.70;83.60;;;;;;4994348;28;20445;-77
2023/10/28 05:53:00;;;;;;;2.47;1.07;;;10.70;84.20;;;;;;4993917;28;20799;-78
2023/10/28 05:55:26;;;;;;;1.50;0.90;;;10.70;84.50;;;;;;4994231;28;20449;-77
2023/10/28 05:57:53;;;;;;;1.83;0.90;;;10.60;83.70;;;;;;4995609;28;20483;-78
2023/10/28 06:00:20;;;;;;;1.80;1.00;;;10.60;84.10;;;;;;5005136;28;20449;-78
2023/10/28 06:02:48;;;;;;;1.80;0.90;;;10.70;83.90;;;;;;4999340;28;20477;-77
2023/10/28 06:05:15;;;;;;;2.47;1.10;;;10.70;83.40;;;;;;4994157;28;20448;-77
2023/10/28 06:07:47;;;;;;;1.50;0.90;;;10.70;83.60;;;;;;4994379;28;20473;-77
2023/10/28 06:10:14;;;;;;;2.13;1.00;;;10.80;83.60;;;;;;4994064;28;21050;-78
2023/10/28 06:12:41;;;;;;;2.10;1.00;;;10.80;83.90;;;;;;4994310;28;20465;-77
2023/10/28 06:15:08;;;;;;;1.70;0.97;;;10.90;83.30;;;;;;4994359;28;20445;-77
2023/10/28 06:17:35;;;;;;;2.67;1.10;;;11.00;83.40;;;;;;4994394;28;20493;-77
2023/10/28 06:20:05;;;;;;;1.73;0.87;;;11.00;83.60;;;;;;5016046;28;20428;-77
2023/10/28 06:22:32;;;;;;;2.00;1.10;;;11.10;83.00;;;;;;5009778;28;20888;-79
2023/10/28 06:25:00;;;;;;;2.77;1.20;;;11.20;82.80;;;;;;4998323;28;20449;-79
2023/10/28 06:27:27;;;;;;;1.50;0.97;;;11.20;82.00;;;;;;4997969;28;20436;-76
2023/10/28 06:29:54;;;;;;;1.30;0.80;;;11.30;82.60;;;;;;4997775;28;20441;-76
2023/10/28 06:32:20;;;;;;;1.60;1.00;;;11.40;82.00;;;;;;4997578;28;20473;-77
2023/10/28 06:34:47;;;;;;;1.80;0.93;;;11.30;81.70;;;;;;4997641;28;20449;-76
2023/10/28 06:37:15;;;;;;;1.97;0.90;;;11.30;82.00;;;;;;4997269;28;20453;-77
2023/10/28 06:39:44;;;;;;;1.80;0.80;;;11.30;82.50;;;;;;4998422;28;20500;-77
2023/10/28 06:42:11;;;;;;;4.23;1.17;;;11.20;82.70;;;;;;4997461;28;20464;-77
2023/10/28 06:44:37;;;;;;;1.47;1.00;;;11.10;82.70;;;;;;4997424;28;20448;-77
2023/10/28 06:47:04;;;;;;;1.73;1.10;;;11.20;83.40;;;;;;4997410;28;20456;-77
2023/10/28 06:49:32;;;;;;;3.00;2.23;;;11.20;83.00;;;;;;4996999;28;20961;-77
2023/10/28 06:51:58;;;;;;;2.37;1.10;;;11.10;83.20;;;;;;4997203;28;20488;-77
2023/10/28 06:54:26;;;;;;;2.63;1.10;;;11.10;83.20;;;;;;4997469;28;20487;-76
2023/10/28 06:56:53;;;;;;;1.60;0.80;;;10.90;83.50;;;;;;4997442;28;20445;-77
2023/10/28 06:59:20;;;;;;;2.23;1.00;;;10.90;83.90;;;;;;4996960;28;20509;-77
2023/10/28 07:01:47;;;;;;;1.60;1.00;;;11.00;83.80;;;;;;4996784;28;20485;-78
2023/10/28 07:04:13;;;;;;;1.97;1.10;;;11.00;83.70;;;;;;4997063;28;20441;-77
2023/10/28 07:06:45;;;;;;;1.60;1.10;;;11.00;83.90;;;;;;4997029;28;20452;-77
2023/10/28 07:09:11;;;;;;;1.60;0.97;;;11.30;83.60;;;;;;4997025;28;20433;-77
2023/10/28 07:11:39;;;;;;;3.27;1.13;;;11.60;82.60;;;;;;4996934;28;20532;-78
2023/10/28 07:14:06;;;;;;;2.33;1.13;;;11.60;81.70;;;;;;4997858;28;20445;-77
2023/10/28 07:16:34;;;;;;;1.80;0.90;;;11.70;82.10;;;;;;4997251;28;20444;-77
2023/10/28 07:19:00;;;;;;;1.70;0.90;;;11.70;81.60;;;;;;4997683;28;21072;-76
2023/10/28 07:21:27;;;;;;;1.40;0.93;;;11.70;81.90;;;;;;5004665;28;20500;-78
2023/10/28 07:23:54;;;;;;;3.80;1.40;;;11.80;81.10;;;;;;5003968;28;20457;-76
2023/10/28 07:26:32;;;;;;;1.40;0.90;;;11.80;81.40;;;;;;4996914;28;20453;-75
2023/10/28 07:29:00;;;;;;;1.40;0.80;;;12.00;80.70;;;;;;4996870;28;20856;-74
2023/10/28 07:31:27;;;;;;;1.73;1.07;;;12.00;80.80;;;;;;4997240;28;20480;-72
2023/10/28 07:33:56;;;;;;;1.70;0.80;;;12.40;80.20;;;;;;4995379;28;20456;-76
2023/10/28 07:36:23;;;;;;;1.90;1.00;;;13.20;81.90;;;;;;4997063;28;20835;-79
2023/10/28 07:38:50;;;;;;;3.37;1.20;;;14.50;76.30;;;;;;4998930;28;20862;-79
2023/10/28 07:41:18;;;;;;;1.50;1.00;;;15.00;72.30;;;;;;4998447;28;20468;-77
2023/10/28 07:43:46;;;;;;;1.87;1.10;;;15.30;70.40;;;;;;4996981;28;20457;-77
2023/10/28 07:46:14;;;;;;;1.90;1.10;;;15.90;69.00;;;;;;4996300;28;20455;-75
2023/10/28 07:48:41;;;;;;;1.80;0.83;;;16.30;69.00;;;;;;4998199;28;20444;-79
2023/10/28 07:51:07;;;;;;;1.73;1.03;;;16.90;68.20;;;;;;5001563;28;20465;-79
2023/10/28 07:53:34;;;;;;;1.60;0.90;;;18.00;64.70;;;;;;5000586;28;20448;-77
2023/10/28 07:56:01;;;;;;;1.53;0.93;;;19.20;61.80;;;;;;4996654;28;20500;-77
2023/10/28 07:58:27;;;;;;;1.80;1.10;;;20.60;59.20;;;;;;4996754;28;20481;-78
2023/10/28 08:00:54;;;;;;;1.63;1.00;;;21.30;57.30;;;;;;4996723;28;20484;-78
2023/10/28 08:03:22;;;;;;;1.40;0.90;;;20.80;56.40;;;;;;5001033;28;20459;-78
2023/10/28 08:05:49;;;;;;;2.00;1.10;;;19.10;60.70;;;;;;4998586;28;20911;-79
2023/10/28 08:08:15;;;;;;;1.97;0.93;;;18.50;63.60;;;;;;4996720;28;20821;-77
2023/10/28 08:10:42;;;;;;;3.20;0.90;;;17.60;65.10;;;;;;4997062;28;20478;-77
2023/10/28 08:13:09;;;;;;;2.07;1.00;;;16.60;66.70;;;;;;4997087;28;20521;-76
2023/10/28 08:15:35;;;;;;;1.60;0.80;;;15.90;69.10;;;;;;4997701;28;20473;-78
2023/10/28 08:18:02;;;;;;;1.80;1.00;;;15.30;72.20;;;;;;4997351;28;20485;-77
2023/10/28 08:20:30;;;;;;;1.60;0.90;;;14.80;72.50;;;;;;4997247;28;20438;-76
2023/10/28 08:22:57;;;;;;;2.33;1.00;;;14.70;72.30;;;;;;4997071;28;20441;-77
2023/10/28 08:25:24;;;;;;;1.60;1.10;;;14.50;74.50;;;;;;4997331;28;20480;-78
2023/10/28 08:27:52;;;;;;;2.00;1.00;;;14.50;73.90;;;;;;4997438;28;20444;-77
2023/10/28 08:30:20;;;;;;;1.67;0.90;;;14.30;73.70;;;;;;4997705;28;20449;-77
2023/10/28 08:32:46;;;;;;;1.87;1.00;;;14.00;74.20;;;;;;4996951;28;20842;-79
2023/10/28 08:35:14;;;;;;;2.47;0.90;;;13.90;75.80;;;;;;4996774;28;20449;-78
2023/10/28 08:37:42;;;;;;;2.10;1.00;;;14.00;74.90;;;;;;4996285;28;20829;-77
2023/10/28 08:40:11;;;;;;;1.70;1.10;;;14.00;74.30;;;;;;4995660;28;20818;-78
2023/10/28 08:42:38;;;;;;;3.20;1.13;;;13.90;76.30;;;;;;4998656;28;20465;-80
2023/10/28 08:45:08;;;;;;;2.50;1.00;;;14.00;75.00;;;;;;4996838;28;20473;-79
2023/10/28 08:47:38;;;;;;;1.80;1.00;;;14.10;77.10;;;;;;4998150;28;20503;-79
2023/10/28 08:50:07;;;;;;;1.93;0.80;;;14.20;75.50;;;;;;4997323;28;20922;-75
2023/10/28 08:52:37;;;;;;;1.90;0.90;;;14.10;75.40;;;;;;4997139;28;20461;-75
2023/10/28 08:55:07;;;;;;;1.77;1.10;;;13.90;74.60;;;;;;4998099;28;20525;-75
2023/10/28 08:57:36;;;;;;;1.40;0.80;;;13.90;76.10;;;;;;4997207;28;20471;-76
2023/10/28 09:00:14;;;;;;;1.87;1.07;;;13.90;75.30;;;;;;4997191;28;20496;-77
2023/10/28 09:02:43;;;;;;;4.50;1.20;;;13.90;76.90;;;;;;4996796;28;20481;-77
2023/10/28 09:05:10;;;;;;;1.30;0.80;;;13.80;76.70;;;;;;4997513;28;20462;-76
2023/10/28 09:07:36;;;;;;;2.33;1.00;;;13.80;75.10;;;;;;4997171;28;20496;-76
2023/10/28 09:10:05;;;;;;;1.50;0.97;;;13.70;75.70;;;;;;4996933;28;20445;-74
2023/10/28 09:12:32;;;;;;;1.30;0.80;;;13.60;75.50;;;;;;4997100;28;20866;-75
2023/10/28 09:14:59;;;;;;;1.93;1.00;;;13.60;76.20;;;;;;4996970;28;20453;-76
2023/10/28 09:17:26;;;;;;;1.67;1.10;;;13.60;75.90;;;;;;4997420;28;20488;-75
2023/10/28 09:19:52;;;;;;;2.10;1.00;;;13.70;75.90;;;;;;4996716;28;20493;-75
2023/10/28 09:22:20;;;;;;;2.17;0.83;;;13.70;75.30;;;;;;4997544;28;20469;-75
2023/10/28 09:24:47;;;;;;;2.00;1.10;;;13.70;76.10;;;;;;4996770;28;20452;-75
2023/10/28 09:27:15;;;;;;;2.20;1.40;;;13.70;75.30;;;;;;4996431;28;20453;-75
2023/10/28 09:29:42;;;;;;;2.63;0.90;;;13.60;75.90;;;;;;4995887;28;20539;-76
2023/10/28 09:32:10;;;;;;;2.27;1.00;;;13.60;75.30;;;;;;4996333;28;20473;-74
2023/10/28 09:34:38;;;;;;;2.37;0.97;;;13.60;75.90;;;;;;4996594;28;20454;-75
2023/10/28 09:37:05;;;;;;;1.60;1.00;;;13.50;76.00;;;;;;4996461;28;20445;-76
2023/10/28 09:39:33;;;;;;;1.30;0.70;;;13.60;76.20;;;;;;4995690;28;20512;-75
2023/10/28 09:42:00;;;;;;;1.53;0.90;;;13.60;76.00;;;;;;4996943;28;20503;-75
2023/10/28 09:44:29;;;;;;;1.37;1.03;;;13.60;75.20;;;;;;4996136;28;20441;-76
2023/10/28 09:47:02;;;;;;;1.43;0.93;;;13.70;76.50;;;;;;4995729;28;20472;-76
2023/10/28 09:49:29;;;;;;;1.80;1.00;;;13.90;74.80;;;;;;4996516;28;20492;-76
2023/10/28 09:52:00;;;;;;;3.03;1.00;;;14.00;75.50;;;;;;4996339;28;20525;-75
2023/10/28 09:54:30;;;;;;;2.33;1.00;;;14.10;75.10;;;;;;4995836;28;20453;-75
2023/10/28 09:57:01;;;;;;;2.60;1.10;;;14.30;75.20;;;;;;4996304;28;20437;-76
2023/10/28 09:59:33;;;;;;;1.60;0.87;;;14.30;74.80;;;;;;4996244;28;20480;-76
2023/10/28 10:02:23;;;;;;;1.67;1.00;;;14.30;74.30;;;;;;4994510;28;20487;-77
2023/10/28 10:04:55;;;;;;;1.80;1.00;;;14.30;73.90;;;;;;4995253;28;20928;-77
2023/10/28 10:07:22;;;;;;;1.30;0.70;;;14.40;75.00;;;;;;4994975;28;20426;-77
2023/10/28 10:09:49;;;;;;;2.03;1.00;;;14.40;74.40;;;;;;4994921;28;20820;-77
2023/10/28 10:12:16;;;;;;;1.60;0.90;;;14.40;74.00;;;;;;4995023;28;20822;-76
2023/10/28 10:14:46;;;;;;;1.90;0.97;;;14.40;73.40;;;;;;4996079;28;20449;-75
2023/10/28 10:17:22;;;;;;;1.40;0.90;;;14.40;73.70;;;;;;4996209;28;20453;-76
2023/10/28 10:19:49;;;;;;;1.60;0.90;;;14.50;73.40;;;;;;4995960;28;20501;-76
2023/10/28 10:22:18;;;;;;;2.17;1.00;;;14.50;73.90;;;;;;4995353;28;20503;-76
2023/10/28 10:24:51;;;;;;;1.87;0.87;;;14.40;74.20;;;;;;4995937;28;20477;-76
2023/10/28 10:27:35;;;;;;;2.83;1.07;;;14.50;73.70;;;;;;4995203;28;20532;-76
2023/10/28 10:30:08;;;;;;;2.47;1.17;;;14.50;74.30;;;;;;4995678;28;20493;-76
2023/10/28 10:32:46;;;;;;;1.77;1.17;;;14.40;72.50;;;;;;4994963;28;20476;-79
2023/10/28 10:35:14;;;;;;;2.77;1.13;;;14.40;74.30;;;;;;4996748;28;20468;-76
2023/10/28 10:37:41;;;;;;;1.90;1.27;;;14.40;72.90;;;;;;4997241;28;20481;-77
2023/10/28 10:40:10;;;;;;;2.30;1.00;;;14.40;73.70;;;;;;4996804;28;20477;-77
2023/10/28 10:42:38;;;;;;;2.70;1.07;;;14.50;74.00;;;;;;4996978;28;20982;-77
2023/10/28 10:45:08;;;;;;;1.80;0.80;;;14.50;73.60;;;;;;4997182;28;20484;-78
2023/10/28 10:47:35;;;;;;;2.73;1.17;;;14.60;74.00;;;;;;4996810;28;20452;-77
2023/10/28 10:50:03;;;;;;;1.57;0.90;;;14.70;73.70;;;;;;4996846;28;20813;-77
2023/10/28 10:52:30;;;;;;;2.20;0.90;;;14.80;72.60;;;;;;4996831;28;20496;-78
2023/10/28 10:55:04;;;;;;;1.90;1.23;;;14.70;73.70;;;;;;4995787;28;20479;-77
2023/10/28 10:57:32;;;;;;;2.17;0.80;;;14.80;73.40;;;;;;4996357;28;20437;-77
2023/10/28 10:59:58;;;;;;;1.43;1.00;;;14.90;73.60;;;;;;4994726;28;20491;-77
2023/10/28 11:02:27;;;;;;;1.40;0.80;;;15.00;72.60;;;;;;4993245;28;20476;-77
2023/10/28 11:04:55;;;;;;;1.70;0.90;;;15.00;72.40;;;;;;4993908;28;20891;-77
2023/10/28 11:07:22;;;;;;;1.30;0.90;;;14.80;72.90;;;;;;4994570;28;20445;-77
2023/10/28 11:09:48;;;;;;;3.13;1.20;;;14.80;72.80;;;;;;4997417;28;20445;-77
2023/10/28 11:12:15;;;;;;;2.93;1.47;;;14.70;73.50;;;;;;4997468;28;20478;-77
2023/10/28 11:14:42;;;;;;;3.40;1.07;;;14.60;73.10;;;;;;4997941;28;20935;-77
2023/10/28 11:17:09;;;;;;;1.37;0.80;;;14.50;73.30;;;;;;4997536;28;20540;-77
2023/10/28 11:19:37;;;;;;;1.70;1.00;;;14.50;73.20;;;;;;4997167;28;20571;-77
2023/10/28 11:22:04;;;;;;;2.80;1.10;;;14.60;75.00;;;;;;4997276;28;20473;-77
2023/10/28 11:24:34;;;;;;;1.60;1.00;;;14.70;73.70;;;;;;4997786;28;20452;-77
2023/10/28 11:27:01;;;;;;;1.80;1.00;;;14.70;73.20;;;;;;4998303;28;20904;-77
2023/10/28 11:29:30;;;;;;;2.60;0.90;;;14.90;74.70;;;;;;4998373;28;20440;-77
2023/10/28 11:32:06;;;;;;;2.17;0.90;;;14.90;72.40;;;;;;4997118;28;20472;-76
2023/10/28 11:34:39;;;;;;;1.70;1.03;;;14.80;73.70;;;;;;4997906;28;20460;-76
2023/10/28 11:37:08;;;;;;;2.37;1.40;;;14.80;73.10;;;;;;4997044;28;20483;-75
2023/10/28 11:39:35;;;;;;;1.90;1.10;;;14.60;73.00;;;;;;4996289;28;20480;-76
2023/10/28 11:42:09;;;;;;;1.53;1.00;;;14.50;73.80;;;;;;4996823;28;20504;-76
2023/10/28 11:44:36;;;;;;;1.50;0.83;;;14.50;73.30;;;;;;4997538;28;20445;-76
2023/10/28 11:47:03;;;;;;;1.50;1.10;;;14.40;73.40;;;;;;4997506;28;20459;-76
2023/10/28 11:49:30;;;;;;;1.77;1.20;;;14.40;73.30;;;;;;4998287;28;20449;-76
2023/10/28 11:51:58;;;;;;;1.50;1.00;;;14.40;73.50;;;;;;4997724;28;20465;-76
2023/10/28 11:54:25;;;;;;;2.50;1.40;;;14.40;73.30;;;;;;4997678;28;20445;-75
2023/10/28 11:56:51;;;;;;;1.80;0.97;;;14.40;74.30;;;;;;4997781;28;20500;-76
2023/10/28 11:59:18;;;;;;;3.03;1.20;;;14.50;73.70;;;;;;4997860;28;20477;-76
2023/10/28 12:01:45;;;;;;;2.30;1.00;;;14.50;73.40;;;;;;4997876;28;20481;-76
2023/10/28 12:04:11;;;;;;;5.00;1.70;;;14.60;74.00;;;;;;4997714;28;20456;-75
2023/10/28 12:06:38;;;;;;;3.50;1.20;;;14.50;73.80;;;;;;4998026;28;20457;-76
2023/10/28 12:09:11;;;;;;;3.67;1.13;;;14.50;74.40;;;;;;4997816;28;20449;-76
2023/10/28 12:11:38;;;;;;;2.00;1.17;;;14.60;74.70;;;;;;4996358;28;20457;-76
2023/10/28 12:14:07;;;;;;;1.40;0.87;;;14.70;74.80;;;;;;4995801;28;20544;-76
2023/10/28 12:16:37;;;;;;;3.17;1.10;;;14.80;74.70;;;;;;4995664;28;20457;-76
2023/10/28 12:19:05;;;;;;;2.00;1.10;;;15.00;74.20;;;;;;4994986;28;20548;-77
2023/10/28 12:21:32;;;;;;;2.20;1.20;;;15.00;74.20;;;;;;4995526;28;20473;-76
2023/10/28 12:23:58;;;;;;;2.73;1.30;;;14.90;73.50;;;;;;4995614;28;20449;-76
2023/10/28 12:26:27;;;;;;;2.20;1.20;;;14.90;74.30;;;;;;4995759;28;20440;-76
2023/10/28 12:28:54;;;;;;;1.80;1.10;;;14.80;73.30;;;;;;4995369;28;20477;-76
2023/10/28 12:31:22;;;;;;;5.77;1.40;;;15.00;73.90;;;;;;4995253;28;20472;-76
2023/10/28 12:33:49;;;;;;;2.30;1.40;;;15.00;74.50;;;;;;4995593;28;20476;-76
2023/10/28 12:36:16;;;;;;;1.60;1.10;;;14.90;72.90;;;;;;4996087;28;20452;-76
2023/10/28 12:38:44;;;;;;;1.70;1.20;;;15.00;73.10;;;;;;4995556;28;20460;-76
2023/10/28 12:41:11;;;;;;;1.40;1.00;;;14.90;72.30;;;;;;4995169;28;20915;-76
2023/10/28 12:43:39;;;;;;;2.17;1.13;;;14.80;72.80;;;;;;4995543;28;20464;-75
2023/10/28 12:46:07;;;;;;;1.50;1.10;;;14.90;71.00;;;;;;4996117;28;20481;-76
2023/10/28 12:48:33;;;;;;;2.33;1.17;;;14.80;73.60;;;;;;4995250;28;20452;-77
2023/10/28 12:51:00;;;;;;;2.40;1.30;;;15.10;73.90;;;;;;4995636;28;20465;-76
2023/10/28 12:53:27;;;;;;;2.00;1.20;;;15.20;72.40;;;;;;4995632;28;20468;-76
2023/10/28 12:55:55;;;;;;;2.67;1.07;;;15.20;72.00;;;;;;4995471;28;20456;-76
2023/10/28 12:58:21;;;;;;;1.70;1.10;;;15.10;72.80;;;;;;4995591;28;20561;-76
2023/10/28 13:00:51;;;;;;;1.50;1.10;;;15.00;72.70;;;;;;4995281;28;20501;-76
2023/10/28 13:03:18;;;;;;;1.90;1.10;;;15.00;72.60;;;;;;4995691;28;20800;-76
2023/10/28 13:05:45;;;;;;;1.83;1.23;;;15.10;73.00;;;;;;4995273;28;20938;-76
2023/10/28 13:08:13;;;;;;;2.07;1.07;;;15.30;73.30;;;;;;4995826;28;20457;-76
2023/10/28 13:10:40;;;;;;;1.97;1.20;;;15.30;71.40;;;;;;4995564;28;20446;-76
2023/10/28 13:13:07;;;;;;;3.70;1.27;;;15.20;71.90;;;;;;4995860;28;20449;-76
2023/10/28 13:15:34;;;;;;;1.40;0.90;;;15.20;72.70;;;;;;4995819;28;20870;-76
2023/10/28 13:18:02;;;;;;;2.30;1.40;;;15.20;72.40;;;;;;4995722;28;20445;-76
2023/10/28 13:20:28;;;;;;;1.60;1.10;;;15.10;73.20;;;;;;4995677;28;20485;-76
2023/10/28 13:22:55;;;;;;;3.43;1.67;;;15.00;71.90;;;;;;4995858;28;20449;-77
2023/10/28 13:25:22;;;;;;;3.70;1.40;;;14.90;73.90;;;;;;4995823;28;20445;-77
2023/10/28 13:27:48;;;;;;;2.07;1.20;;;15.00;73.90;;;;;;4995389;28;20456;-75
2023/10/28 13:30:16;;;;;;;1.90;1.00;;;15.00;73.30;;;;;;4995015;28;20444;-78
2023/10/28 13:32:43;;;;;;;1.97;1.00;;;14.90;73.90;;;;;;4994708;28;20847;-78
2023/10/28 13:35:12;;;;;;;2.33;1.03;;;14.70;73.50;;;;;;4995275;28;20493;-77
2023/10/28 13:37:39;;;;;;;1.83;1.30;;;14.60;73.90;;;;;;4995152;28;20481;-77
2023/10/28 13:40:07;;;;;;;2.00;0.93;;;14.40;74.50;;;;;;4994591;28;20516;-77
2023/10/28 13:42:34;;;;;;;2.00;1.37;;;14.30;74.90;;;;;;4994166;28;20469;-77
2023/10/28 13:45:00;;;;;;;2.13;1.13;;;14.30;75.10;;;;;;4994850;28;20449;-77
2023/10/28 13:47:27;;;;;;;2.30;1.60;;;14.40;75.30;;;;;;4994686;28;20819;-77
2023/10/28 13:49:54;;;;;;;2.93;1.13;;;14.50;76.30;;;;;;4994183;28;20441;-77
2023/10/28 13:52:22;;;;;;;1.70;1.10;;;14.50;76.10;;;;;;4994206;28;20473;-79
2023/10/28 13:54:51;;;;;;;3.10;1.60;;;14.70;76.00;;;;;;4994633;28;20472;-79
2023/10/28 13:57:17;;;;;;;1.87;1.30;;;14.70;76.10;;;;;;4994672;28;20446;-78
2023/10/28 13:59:45;;;;;;;2.80;1.40;;;14.80;74.90;;;;;;4994197;28;20488;-78
2023/10/28 14:02:14;;;;;;;1.70;1.10;;;14.80;74.60;;;;;;4994102;28;20480;-78
2023/10/28 14:04:42;;;;;;;2.50;1.00;;;14.80;75.20;;;;;;4994108;28;20792;-77
2023/10/28 14:07:08;;;;;;;3.10;1.33;;;14.90;74.00;;;;;;4994056;28;20543;-76
2023/10/28 14:09:36;;;;;;;1.90;1.40;;;14.90;75.40;;;;;;4994141;28;20964;-76
2023/10/28 14:12:03;;;;;;;1.70;1.20;;;14.90;74.20;;;;;;4995046;28;20858;-76
2023/10/28 14:14:30;;;;;;;2.53;1.40;;;14.90;74.30;;;;;;4995912;28;20453;-76
2023/10/28 14:16:57;;;;;;;3.50;1.40;;;14.90;73.50;;;;;;4995492;28;20492;-76
2023/10/28 14:19:24;;;;;;;2.43;1.40;;;14.80;74.20;;;;;;4994751;28;20472;-76
2023/10/28 14:21:51;;;;;;;2.73;1.20;;;14.80;74.90;;;;;;4994652;28;20540;-76
2023/10/28 14:24:20;;;;;;;3.40;1.20;;;14.70;74.50;;;;;;4994996;28;20507;-76
2023/10/28 14:26:49;;;;;;;2.27;1.30;;;14.80;74.70;;;;;;4994980;28;20491;-76
2023/10/28 14:29:16;;;;;;;3.77;1.30;;;14.70;73.90;;;;;;4994149;28;20461;-77
2023/10/28 14:31:42;;;;;;;3.40;1.57;;;14.80;75.60;;;;;;4994726;28;20468;-77
2023/10/28 14:34:10;;;;;;;2.97;1.30;;;14.80;76.60;;;;;;4997315;28;20457;-79
2023/10/28 14:36:37;;;;;;;1.97;1.47;;;14.80;76.60;;;;;;4995697;28;20958;-79
2023/10/28 14:39:04;;;;;;;2.37;1.47;;;14.90;75.50;;;;;;4993963;28;20523;-79
2023/10/28 14:41:34;;;;;;;3.00;1.40;;;15.00;75.30;;;;;;4994151;28;20573;-78
2023/10/28 14:44:02;;;;;;;2.30;1.30;;;15.00;74.70;;;;;;4998591;28;20938;-80
2023/10/28 14:46:28;;;;;;;3.23;1.27;;;15.00;75.60;;;;;;4998987;28;20456;-78
2023/10/28 14:48:55;;;;;;;3.90;1.67;;;15.10;75.40;;;;;;4999676;28;20448;-79
2023/10/28 14:51:22;;;;;;;2.33;1.30;;;15.10;74.20;;;;;;4998054;28;20456;-78
2023/10/28 14:53:49;;;;;;;2.83;1.83;;;15.20;75.20;;;;;;4997614;28;20453;-80
2023/10/28 14:56:16;;;;;;;3.27;1.40;;;15.20;75.40;;;;;;4998586;28;20449;-78
2023/10/28 14:58:43;;;;;;;1.90;1.07;;;15.20;75.50;;;;;;4997864;28;20508;-79
2023/10/28 15:01:11;;;;;;;3.37;1.33;;;15.20;74.30;;;;;;4997722;28;20496;-80
2023/10/28 15:03:38;;;;;;;2.57;1.20;;;15.20;73.90;;;;;;4997546;28;20823;-79
2023/10/28 15:06:05;;;;;;;3.50;1.20;;;15.10;74.60;;;;;;4998521;28;20860;-79
2023/10/28 15:08:33;;;;;;;2.40;1.40;;;15.00;73.80;;;;;;4997439;28;20453;-78
2023/10/28 15:11:04;;;;;;;2.23;1.03;;;14.90;74.50;;;;;;4997250;28;20512;-79
2023/10/28 15:13:30;;;;;;;3.07;1.40;;;15.00;74.20;;;;;;4997478;28;20468;-78
2023/10/28 15:15:58;;;;;;;2.17;1.40;;;15.00;74.70;;;;;;4997257;28;20457;-78
2023/10/28 15:18:26;;;;;;;1.50;0.90;;;14.80;75.40;;;;;;4996723;28;20964;-78
2023/10/28 15:20:53;;;;;;;4.60;1.30;;;14.80;76.10;;;;;;4998643;28;20492;-79
2023/10/28 15:23:20;;;;;;;1.93;1.33;;;14.80;74.80;;;;;;4997814;28;20447;-78
2023/10/28 15:25:47;;;;;;;2.30;1.50;;;14.80;74.70;;;;;;4997142;28;20444;-78
2023/10/28 15:28:13;;;;;;;1.83;1.20;;;14.80;74.60;;;;;;4996894;28;20452;-79
2023/10/28 15:30:40;;;;;;;1.77;1.13;;;14.70;75.30;;;;;;4996696;28;20452;-76
2023/10/28 15:33:07;;;;;;;2.40;1.40;;;14.70;74.30;;;;;;4997363;28;20456;-75
2023/10/28 15:35:37;;;;;;;2.10;1.27;;;14.70;74.70;;;;;;4999130;28;20544;-76
2023/10/28 15:38:04;;;;;;;1.60;1.00;;;14.60;75.30;;;;;;4999114;28;20441;-75
2023/10/28 15:40:30;;;;;;;2.67;1.47;;;14.70;75.10;;;;;;4999009;28;20485;-76
2023/10/28 15:42:57;;;;;;;2.23;1.40;;;14.80;75.50;;;;;;4999327;28;20521;-76
2023/10/28 15:45:24;;;;;;;1.50;1.30;;;14.50;76.30;;;;;;4999527;28;20492;-75
2023/10/28 15:47:52;;;;;;;2.03;1.43;;;14.50;75.70;;;;;;4999470;28;20549;-76
2023/10/28 15:50:19;;;;;;;1.73;1.40;;;14.60;76.50;;;;;;4999144;28;20445;-76
2023/10/28 15:52:49;;;;;;;2.20;1.30;;;14.40;76.60;;;;;;4998346;28;20476;-76
2023/10/28 15:55:16;;;;;;;2.60;1.30;;;14.50;76.70;;;;;;4996254;28;20444;-75
2023/10/28 15:57:43;;;;;;;1.73;1.30;;;14.40;76.70;;;;;;4996961;28;20446;-75
2023/10/28 16:00:10;;;;;;;1.80;1.40;;;14.40;76.80;;;;;;4995973;28;20453;-75
2023/10/28 16:02:37;;;;;;;2.63;1.20;;;14.50;76.60;;;;;;4996665;28;20477;-76
2023/10/28 16:05:04;;;;;;;2.70;1.10;;;14.50;76.30;;;;;;4997353;28;20829;-76
2023/10/28 16:07:31;;;;;;;2.50;1.43;;;14.60;76.80;;;;;;4997364;28;20469;-76
2023/10/28 16:09:59;;;;;;;2.77;1.60;;;14.70;76.70;;;;;;4997500;28;20468;-76
2023/10/28 16:12:26;;;;;;;2.60;1.40;;;14.60;76.30;;;;;;4997660;28;20465;-76
2023/10/28 16:14:52;;;;;;;1.70;1.17;;;14.60;76.30;;;;;;5005143;23;20449;-75
2023/10/28 16:17:19;;;;;;;4.53;1.57;;;14.60;75.50;;;;;;4996887;28;20437;-76
2023/10/28 16:19:46;;;;;;;2.40;1.20;;;14.70;74.90;;;;;;4996475;28;20453;-76
2023/10/28 16:22:12;;;;;;;3.50;1.50;;;14.60;75.90;;;;;;4996909;28;20492;-76
2023/10/28 16:24:39;;;;;;;2.50;1.90;;;14.40;76.80;;;;;;4997549;28;20449;-76
2023/10/28 16:27:07;;;;;;;4.40;3.00;;;14.40;76.30;;;;;;4977295;28;20446;-76
2023/10/28 16:29:34;;;;;;;2.43;1.53;;;14.20;76.70;;;;;;4977313;28;20450;-76
2023/10/28 16:32:00;;;;;;;2.80;1.30;;;14.30;76.90;;;;;;4976714;28;20446;-75
2023/10/28 16:34:27;;;;;;;2.40;1.53;;;14.50;76.30;;;;;;4976432;28;20469;-76
2023/10/28 16:36:54;;;;;;;2.27;1.20;;;14.50;76.00;;;;;;4976115;28;20489;-76
2023/10/28 16:39:21;;;;;;;1.83;1.57;;;14.50;75.50;;;;;;4976080;28;20465;-76
2023/10/28 16:41:48;;;;;;;2.90;1.67;;;14.40;76.30;;;;;;4975956;28;20474;-76
2023/10/28 16:44:16;;;;;;;1.73;1.30;;;14.50;76.00;;;;;;4976218;28;20825;-76
2023/10/28 16:46:43;;;;;;;2.93;1.70;;;14.40;75.90;;;;;;4976060;28;20461;-76
2023/10/28 16:49:12;;;;;;;2.37;1.53;;;14.50;76.00;;;;;;4976735;28;20446;-76
2023/10/28 16:51:39;;;;;;;4.70;1.90;;;14.60;75.70;;;;;;4976673;28;20453;-76